Legend — WDF9316 — position and weather

sailwx.info

Track history (hours):
 
Tides and Currents Weather Stations Pressure Air Temp Water Temp Dewpoint Dewpoint Depression Visibility Wind Speed Wind Dir Waves Ship Positions

Legend

Owner: Crowley Maritime, Seattle, WA. More information available from US FCC via Universal Licensing System and Coast Guard Vessel Documentation Center.

Last reported at 2017-Oct-08 05:23 UTC. Time now 2017-Oct-18 16:46 UTC.
Position N 24°53' W 080°21'.
Warning: this ship's position is 10 days out of date.

Length 212 m; draft 7.8 m.

Type: Towing. MMSI: 366709000.

Date/timePositionNaut miles runAvg speedWind from/ knotsBaromVisibWave heightAir tempDewpointWater temp
2017-Oct-08 05:23N 24°53' W 080°21'30 8.2
2017-Oct-08 01:47N 25°18' W 080°03'2 8.9
2017-Oct-08 01:30N 25°20' W 080°02'4 8.5
2017-Oct-08 01:00N 25°24' W 080°01'4 8.6
2017-Oct-08 00:30N 25°29' W 080°00'4 8.7
2017-Oct-08 00:00N 25°33' W 079°60'4 8.6
2017-Oct-07 23:30N 25°37' W 079°60'4 8.7
2017-Oct-07 23:00N 25°42' W 080°00'4 9.0
2017-Oct-07 22:30N 25°46' W 080°01'4 8.9
2017-Oct-07 22:00N 25°51' W 080°01'4 8.9
2017-Oct-07 21:30N 25°55' W 080°01'4 8.9
2017-Oct-07 21:00N 25°60' W 080°00'4 7.9
2017-Oct-07 20:30N 26°03' W 080°01'4 8.2
2017-Oct-07 20:00N 26°06' W 080°05'2 3.8
2017-Oct-07 19:29N 26°06' W 080°07'0 0.0
2017-Oct-07 18:59N 26°06' W 080°07'0 0.0
2017-Oct-07 18:26N 26°06' W 080°07'0 0.0
2017-Oct-07 17:59N 26°06' W 080°07'0 0.0
2017-Oct-07 17:29N 26°06' W 080°07'0 0.0
2017-Oct-07 16:59N 26°06' W 080°07'0 0.0
2017-Oct-07 16:29N 26°06' W 080°07'0 0.0
2017-Oct-07 15:59N 26°06' W 080°07'0 0.0
2017-Oct-07 15:29N 26°06' W 080°07'0 0.0
2017-Oct-07 14:59N 26°06' W 080°07'0 0.0
2017-Oct-07 14:23N 26°06' W 080°07'0 0.0
2017-Oct-07 13:50N 26°06' W 080°07'0 0.0
2017-Oct-07 13:23N 26°06' W 080°07'0 0.0
2017-Oct-07 12:53N 26°06' W 080°07'0 0.0
2017-Oct-07 12:23N 26°06' W 080°07'0 0.0
2017-Oct-07 11:53N 26°06' W 080°07'0 0.0
2017-Oct-07 11:23N 26°06' W 080°07'0 0.0
2017-Oct-07 10:53N 26°06' W 080°07'0 0.0
2017-Oct-07 10:26N 26°06' W 080°07'0 0.0
2017-Oct-07 09:56N 26°06' W 080°07'0 0.0
2017-Oct-07 09:23N 26°06' W 080°07'0 0.0
2017-Oct-07 08:59N 26°06' W 080°07'0 0.0
2017-Oct-07 08:26N 26°06' W 080°07'0 0.0
2017-Oct-07 07:56N 26°06' W 080°07'0 0.0
2017-Oct-07 07:29N 26°06' W 080°07'0 0.0
2017-Oct-07 06:59N 26°06' W 080°07'0 0.0
2017-Oct-07 06:29N 26°06' W 080°07'0 0.0
2017-Oct-07 05:59N 26°06' W 080°07'0 0.0
2017-Oct-07 05:29N 26°06' W 080°07'0 0.0
2017-Oct-07 04:59N 26°06' W 080°07'0 0.0
2017-Oct-07 04:29N 26°06' W 080°07'0 0.0
2017-Oct-07 03:59N 26°06' W 080°07'0 0.0
2017-Oct-07 03:29N 26°06' W 080°07'0 0.0
2017-Oct-07 02:59N 26°06' W 080°07'0 0.0
2017-Oct-07 02:29N 26°06' W 080°07'0 0.0
2017-Oct-07 01:59N 26°06' W 080°07'0 0.0
2017-Oct-07 01:29N 26°06' W 080°07'0 0.0
2017-Oct-07 00:50N 26°06' W 080°07'0 0.0
2017-Oct-07 00:20N 26°06' W 080°07'0 0.0
2017-Oct-06 23:47N 26°06' W 080°07'0 0.0
2017-Oct-06 23:17N 26°06' W 080°07'0 0.0
2017-Oct-06 22:50N 26°06' W 080°07'0 0.0
2017-Oct-06 22:23N 26°06' W 080°07'0 0.0
2017-Oct-06 21:53N 26°06' W 080°07'0 0.0
2017-Oct-06 21:23N 26°06' W 080°07'0 0.0
2017-Oct-06 20:53N 26°06' W 080°07'0 0.0
2017-Oct-06 20:26N 26°06' W 080°07'0 0.0
2017-Oct-06 19:56N 26°06' W 080°07'0 0.0
2017-Oct-06 19:26N 26°06' W 080°07'0 0.0
2017-Oct-06 18:56N 26°06' W 080°07'0 0.0
2017-Oct-06 18:26N 26°06' W 080°07'0 0.0
2017-Oct-06 17:59N 26°06' W 080°07'0 0.0
2017-Oct-06 17:30N 26°06' W 080°07'0 0.5
2017-Oct-06 17:00N 26°06' W 080°07'3 5.7
2017-Oct-06 16:30N 26°06' W 080°04'4 8.3
2017-Oct-06 16:00N 26°02' W 080°01'510.7
2017-Oct-06 15:30N 25°57' W 079°60'611.1
2017-Oct-06 15:00N 25°51' W 079°60'611.1
2017-Oct-06 14:30N 25°46' W 079°59'612.0
2017-Oct-06 14:00N 25°40' W 079°59'713.4
2017-Oct-06 13:30N 25°33' W 079°59'714.0
2017-Oct-06 13:00N 25°26' W 079°59'  
2017-Oct-01 06:48N 29°50' W 093°57'4 9.5
2017-Oct-01 06:23N 29°46' W 093°56'410.5
2017-Oct-01 06:00N 29°44' W 093°52'612.1
2017-Oct-01 05:30N 29°38' W 093°49'60012.0
2017-Sep-29 03:23N 27°37' W 082°40'612.4
2017-Sep-29 02:56N 27°41' W 082°35'511.9
2017-Sep-29 02:30N 27°45' W 082°32'510.8
2017-Sep-29 02:00N 27°49' W 082°27'611.8
2017-Sep-29 01:30N 27°55' W 082°26'2 3.9
2017-Sep-29 01:01N 27°56' W 082°27'0 0.6
2017-Sep-29 00:30N 27°57' W 082°27'0 0.0
2017-Sep-29 00:00N 27°57' W 082°27'0 0.0
2017-Sep-28 23:30N 27°57' W 082°27'0 0.0
2017-Sep-28 23:00N 27°57' W 082°27'0 0.0
2017-Sep-28 22:30N 27°57' W 082°27'0 0.0
2017-Sep-28 22:00N 27°57' W 082°27'0 0.0
2017-Sep-28 21:30N 27°57' W 082°27'0 0.0
2017-Sep-28 21:00N 27°57' W 082°27'0 0.0
2017-Sep-28 20:30N 27°57' W 082°27'0 0.0
2017-Sep-28 20:00N 27°57' W 082°27'0 0.0
2017-Sep-28 19:30N 27°57' W 082°27'0 0.0
2017-Sep-28 19:00N 27°57' W 082°27'0 0.0
2017-Sep-28 18:30N 27°57' W 082°27'0 0.0
2017-Sep-28 18:00N 27°57' W 082°27'0 0.0
2017-Sep-28 17:30N 27°57' W 082°27'0 0.0
2017-Sep-28 17:00N 27°57' W 082°27'0 0.0
2017-Sep-28 16:30N 27°57' W 082°27'0 0.0
2017-Sep-28 16:00N 27°57' W 082°27'0 0.0
2017-Sep-28 15:30N 27°57' W 082°27'0 0.0
2017-Sep-28 15:00N 27°57' W 082°27'0 0.0
2017-Sep-28 14:30N 27°57' W 082°27'0 0.0
2017-Sep-28 13:57N 27°57' W 082°27'0 0.0
2017-Sep-28 13:30N 27°57' W 082°27'0 0.0
2017-Sep-28 13:00N 27°57' W 082°27'0 0.0
2017-Sep-28 12:30N 27°57' W 082°27'0 0.0
2017-Sep-28 12:00N 27°57' W 082°27'0 0.0
2017-Sep-28 11:30N 27°57' W 082°27'0 0.0
2017-Sep-28 11:00N 27°57' W 082°27'0 0.0
2017-Sep-28 10:30N 27°57' W 082°27'0 0.0
2017-Sep-28 10:00N 27°57' W 082°27'0 0.0
2017-Sep-28 09:30N 27°57' W 082°27'0 0.0
2017-Sep-28 09:00N 27°57' W 082°27'0 0.0
2017-Sep-28 08:30N 27°57' W 082°27'0 0.0
2017-Sep-28 08:00N 27°57' W 082°27'0 0.0
2017-Sep-28 07:30N 27°57' W 082°27'0 0.0
2017-Sep-28 07:00N 27°57' W 082°27'0 0.0
2017-Sep-28 06:30N 27°57' W 082°27'0 0.0
2017-Sep-28 06:00N 27°57' W 082°27'0 0.0
2017-Sep-28 05:30N 27°57' W 082°27'  
Track history (hours):
 
Tides and Currents Weather Stations Pressure Air Temp Water Temp Dewpoint Dewpoint Depression Visibility Wind Speed Wind Dir Waves Ship Positions

Legend

Owner: Crowley Maritime, Seattle, WA. More information available from US FCC via Universal Licensing System and Coast Guard Vessel Documentation Center.

Last reported at 2017-Oct-08 05:23 UTC. Time now 2017-Oct-18 16:46 UTC.
Position N 24°53' W 080°21'.
Warning: this ship's position is 10 days out of date.

Length 212 m; draft 7.8 m.

Type: Towing. MMSI: 366709000.

Date/timePositionNaut miles runAvg speedWind from/ knotsBaromVisibWave heightAir tempDewpointWater temp
2017-Oct-08 05:23N 24°53' W 080°21'30 8.2
2017-Oct-08 01:47N 25°18' W 080°03'2 8.9
2017-Oct-08 01:30N 25°20' W 080°02'4 8.5
2017-Oct-08 01:00N 25°24' W 080°01'4 8.6
2017-Oct-08 00:30N 25°29' W 080°00'4 8.7
2017-Oct-08 00:00N 25°33' W 079°60'4 8.6
2017-Oct-07 23:30N 25°37' W 079°60'4 8.7
2017-Oct-07 23:00N 25°42' W 080°00'4 9.0
2017-Oct-07 22:30N 25°46' W 080°01'4 8.9
2017-Oct-07 22:00N 25°51' W 080°01'4 8.9
2017-Oct-07 21:30N 25°55' W 080°01'4 8.9
2017-Oct-07 21:00N 25°60' W 080°00'4 7.9
2017-Oct-07 20:30N 26°03' W 080°01'4 8.2
2017-Oct-07 20:00N 26°06' W 080°05'2 3.8
2017-Oct-07 19:29N 26°06' W 080°07'0 0.0
2017-Oct-07 18:59N 26°06' W 080°07'0 0.0
2017-Oct-07 18:26N 26°06' W 080°07'0 0.0
2017-Oct-07 17:59N 26°06' W 080°07'0 0.0
2017-Oct-07 17:29N 26°06' W 080°07'0 0.0
2017-Oct-07 16:59N 26°06' W 080°07'0 0.0
2017-Oct-07 16:29N 26°06' W 080°07'0 0.0
2017-Oct-07 15:59N 26°06' W 080°07'0 0.0
2017-Oct-07 15:29N 26°06' W 080°07'0 0.0
2017-Oct-07 14:59N 26°06' W 080°07'0 0.0
2017-Oct-07 14:23N 26°06' W 080°07'0 0.0
2017-Oct-07 13:50N 26°06' W 080°07'0 0.0
2017-Oct-07 13:23N 26°06' W 080°07'0 0.0
2017-Oct-07 12:53N 26°06' W 080°07'0 0.0
2017-Oct-07 12:23N 26°06' W 080°07'0 0.0
2017-Oct-07 11:53N 26°06' W 080°07'0 0.0
2017-Oct-07 11:23N 26°06' W 080°07'0 0.0
2017-Oct-07 10:53N 26°06' W 080°07'0 0.0
2017-Oct-07 10:26N 26°06' W 080°07'0 0.0
2017-Oct-07 09:56N 26°06' W 080°07'0 0.0
2017-Oct-07 09:23N 26°06' W 080°07'0 0.0
2017-Oct-07 08:59N 26°06' W 080°07'0 0.0
2017-Oct-07 08:26N 26°06' W 080°07'0 0.0
2017-Oct-07 07:56N 26°06' W 080°07'0 0.0
2017-Oct-07 07:29N 26°06' W 080°07'0 0.0
2017-Oct-07 06:59N 26°06' W 080°07'0 0.0
2017-Oct-07 06:29N 26°06' W 080°07'0 0.0
2017-Oct-07 05:59N 26°06' W 080°07'0 0.0
2017-Oct-07 05:29N 26°06' W 080°07'0 0.0
2017-Oct-07 04:59N 26°06' W 080°07'0 0.0
2017-Oct-07 04:29N 26°06' W 080°07'0 0.0
2017-Oct-07 03:59N 26°06' W 080°07'0 0.0
2017-Oct-07 03:29N 26°06' W 080°07'0 0.0
2017-Oct-07 02:59N 26°06' W 080°07'0 0.0
2017-Oct-07 02:29N 26°06' W 080°07'0 0.0
2017-Oct-07 01:59N 26°06' W 080°07'0 0.0
2017-Oct-07 01:29N 26°06' W 080°07'0 0.0
2017-Oct-07 00:50N 26°06' W 080°07'0 0.0
2017-Oct-07 00:20N 26°06' W 080°07'0 0.0
2017-Oct-06 23:47N 26°06' W 080°07'0 0.0
2017-Oct-06 23:17N 26°06' W 080°07'0 0.0
2017-Oct-06 22:50N 26°06' W 080°07'0 0.0
2017-Oct-06 22:23N 26°06' W 080°07'0 0.0
2017-Oct-06 21:53N 26°06' W 080°07'0 0.0
2017-Oct-06 21:23N 26°06' W 080°07'0 0.0
2017-Oct-06 20:53N 26°06' W 080°07'0 0.0
2017-Oct-06 20:26N 26°06' W 080°07'0 0.0
2017-Oct-06 19:56N 26°06' W 080°07'0 0.0
2017-Oct-06 19:26N 26°06' W 080°07'0 0.0
2017-Oct-06 18:56N 26°06' W 080°07'0 0.0
2017-Oct-06 18:26N 26°06' W 080°07'0 0.0
2017-Oct-06 17:59N 26°06' W 080°07'0 0.0
2017-Oct-06 17:30N 26°06' W 080°07'0 0.5
2017-Oct-06 17:00N 26°06' W 080°07'3 5.7
2017-Oct-06 16:30N 26°06' W 080°04'4 8.3
2017-Oct-06 16:00N 26°02' W 080°01'510.7
2017-Oct-06 15:30N 25°57' W 079°60'611.1
2017-Oct-06 15:00N 25°51' W 079°60'611.1
2017-Oct-06 14:30N 25°46' W 079°59'612.0
2017-Oct-06 14:00N 25°40' W 079°59'713.4
2017-Oct-06 13:30N 25°33' W 079°59'714.0
2017-Oct-06 13:00N 25°26' W 079°59'  
2017-Oct-01 06:48N 29°50' W 093°57'4 9.5
2017-Oct-01 06:23N 29°46' W 093°56'410.5
2017-Oct-01 06:00N 29°44' W 093°52'612.1
2017-Oct-01 05:30N 29°38' W 093°49'60012.0
2017-Sep-29 03:23N 27°37' W 082°40'612.4
2017-Sep-29 02:56N 27°41' W 082°35'511.9
2017-Sep-29 02:30N 27°45' W 082°32'510.8
2017-Sep-29 02:00N 27°49' W 082°27'611.8
2017-Sep-29 01:30N 27°55' W 082°26'2 3.9
2017-Sep-29 01:01N 27°56' W 082°27'0 0.6
2017-Sep-29 00:30N 27°57' W 082°27'0 0.0
2017-Sep-29 00:00N 27°57' W 082°27'0 0.0
2017-Sep-28 23:30N 27°57' W 082°27'0 0.0
2017-Sep-28 23:00N 27°57' W 082°27'0 0.0
2017-Sep-28 22:30N 27°57' W 082°27'0 0.0
2017-Sep-28 22:00N 27°57' W 082°27'0 0.0
2017-Sep-28 21:30N 27°57' W 082°27'0 0.0
2017-Sep-28 21:00N 27°57' W 082°27'0 0.0
2017-Sep-28 20:30N 27°57' W 082°27'0 0.0
2017-Sep-28 20:00N 27°57' W 082°27'0 0.0
2017-Sep-28 19:30N 27°57' W 082°27'0 0.0
2017-Sep-28 19:00N 27°57' W 082°27'0 0.0
2017-Sep-28 18:30N 27°57' W 082°27'0 0.0
2017-Sep-28 18:00N 27°57' W 082°27'0 0.0
2017-Sep-28 17:30N 27°57' W 082°27'0 0.0
2017-Sep-28 17:00N 27°57' W 082°27'0 0.0
2017-Sep-28 16:30N 27°57' W 082°27'0 0.0
2017-Sep-28 16:00N 27°57' W 082°27'0 0.0
2017-Sep-28 15:30N 27°57' W 082°27'0 0.0
2017-Sep-28 15:00N 27°57' W 082°27'0 0.0
2017-Sep-28 14:30N 27°57' W 082°27'0 0.0
2017-Sep-28 13:57N 27°57' W 082°27'0 0.0
2017-Sep-28 13:30N 27°57' W 082°27'0 0.0
2017-Sep-28 13:00N 27°57' W 082°27'0 0.0
2017-Sep-28 12:30N 27°57' W 082°27'0 0.0
2017-Sep-28 12:00N 27°57' W 082°27'0 0.0
2017-Sep-28 11:30N 27°57' W 082°27'0 0.0
2017-Sep-28 11:00N 27°57' W 082°27'0 0.0
2017-Sep-28 10:30N 27°57' W 082°27'0 0.0
2017-Sep-28 10:00N 27°57' W 082°27'0 0.0
2017-Sep-28 09:30N 27°57' W 082°27'0 0.0
2017-Sep-28 09:00N 27°57' W 082°27'0 0.0
2017-Sep-28 08:30N 27°57' W 082°27'0 0.0
2017-Sep-28 08:00N 27°57' W 082°27'0 0.0
2017-Sep-28 07:30N 27°57' W 082°27'0 0.0
2017-Sep-28 07:00N 27°57' W 082°27'0 0.0
2017-Sep-28 06:30N 27°57' W 082°27'0 0.0
2017-Sep-28 06:00N 27°57' W 082°27'0 0.0
2017-Sep-28 05:30N 27°57' W 082°27'  

Dump ship's entire track history